createdAt,value
2022-10-23T00:00:47.794Z,1008.32
2022-10-23T00:01:46.665Z,1008.28
2022-10-23T00:02:45.983Z,1008.27
2022-10-23T00:03:45.431Z,1008.29
2022-10-23T00:04:45.359Z,1008.27
2022-10-23T00:05:46.208Z,1008.22
2022-10-23T00:06:46.112Z,1008.22
2022-10-23T00:07:46.073Z,1008.22
2022-10-23T00:08:47.340Z,1008.22
2022-10-23T00:09:46.104Z,1008.23
2022-10-23T00:10:46.912Z,1008.27
2022-10-23T00:11:47.553Z,1008.24
2022-10-23T00:12:45.429Z,1008.24
2022-10-23T00:13:46.216Z,1008.23
2022-10-23T00:14:48.763Z,1008.18
2022-10-23T00:15:46.377Z,1008.16
2022-10-23T00:16:46.016Z,1008.18
2022-10-23T00:17:46.000Z,1008.23
2022-10-23T00:18:46.477Z,1008.22
2022-10-23T00:19:45.974Z,1008.25
2022-10-23T00:20:45.830Z,1008.27
2022-10-23T00:21:46.806Z,1008.29
2022-10-23T00:22:46.161Z,1008.29
2022-10-23T00:23:45.057Z,1008.35
2022-10-23T00:24:46.449Z,1008.32
2022-10-23T00:25:46.401Z,1008.32
2022-10-23T00:26:45.141Z,1008.32
2022-10-23T00:27:46.450Z,1008.25
2022-10-23T00:28:45.806Z,1008.29
2022-10-23T00:29:45.891Z,1008.28
2022-10-23T00:30:45.838Z,1008.29
2022-10-23T00:31:46.489Z,1008.28
2022-10-23T00:32:45.101Z,1008.28
2022-10-23T00:33:45.875Z,1008.29
2022-10-23T00:34:46.823Z,1008.31
2022-10-23T00:35:46.757Z,1008.34
2022-10-23T00:36:46.027Z,1008.35
2022-10-23T00:37:45.125Z,1008.31
2022-10-23T00:38:46.835Z,1008.33
2022-10-23T00:39:46.298Z,1008.28
2022-10-23T00:40:45.045Z,1008.32
2022-10-23T00:41:46.438Z,1008.28
2022-10-23T00:42:45.946Z,1008.30
2022-10-23T00:43:45.165Z,1008.29
2022-10-23T00:44:45.890Z,1008.29
2022-10-23T00:45:45.807Z,1008.26
2022-10-23T00:46:46.599Z,1008.23
2022-10-23T00:47:45.718Z,1008.22
2022-10-23T00:48:46.713Z,1008.26
2022-10-23T00:49:45.645Z,1008.23
2022-10-23T00:50:46.342Z,1008.23
2022-10-23T00:51:47.938Z,1008.24
2022-10-23T00:52:45.743Z,1008.20
2022-10-23T00:53:46.326Z,1008.23
2022-10-23T00:54:46.240Z,1008.23
2022-10-23T00:55:45.949Z,1008.23
2022-10-23T00:56:47.436Z,1008.22
2022-10-23T00:57:45.571Z,1008.20
2022-10-23T00:58:44.773Z,1008.18
2022-10-23T00:59:44.707Z,1008.19
2022-10-23T01:00:44.702Z,1008.16
2022-10-23T01:01:45.772Z,1008.16
2022-10-23T01:02:45.971Z,1008.11
2022-10-23T01:03:44.741Z,1008.15
2022-10-23T01:04:46.701Z,1008.15
2022-10-23T01:05:45.526Z,1008.10
2022-10-23T01:06:48.383Z,1008.13
2022-10-23T01:07:46.082Z,1008.13
2022-10-23T01:08:47.078Z,1008.10
2022-10-23T01:09:46.382Z,1008.07
2022-10-23T01:10:46.458Z,1008.07
2022-10-23T01:11:45.504Z,1008.04
2022-10-23T01:12:46.420Z,1008.01
2022-10-23T01:13:46.434Z,1008.05
2022-10-23T01:14:44.489Z,1008.05
2022-10-23T01:15:45.970Z,1008.02
2022-10-23T01:16:44.582Z,1007.98
2022-10-23T01:17:45.945Z,1007.99
2022-10-23T01:18:45.337Z,1007.97
2022-10-23T01:19:45.205Z,1007.99
2022-10-23T01:20:44.616Z,1008.05
2022-10-23T01:21:45.332Z,1008.02
2022-10-23T01:22:47.113Z,1008.07
2022-10-23T01:23:45.250Z,1007.99
2022-10-23T01:24:45.072Z,1007.99
2022-10-23T01:25:45.368Z,1008.07
2022-10-23T01:26:44.535Z,1008.05
2022-10-23T01:27:45.750Z,1007.99
2022-10-23T01:28:45.217Z,1007.97
2022-10-23T01:29:45.066Z,1007.94
2022-10-23T01:30:44.543Z,1007.93
2022-10-23T01:31:44.504Z,1007.93
2022-10-23T01:32:45.856Z,1007.94
2022-10-23T01:33:46.236Z,1007.97
2022-10-23T01:34:44.987Z,1007.94
2022-10-23T01:35:45.222Z,1007.98
2022-10-23T01:36:44.314Z,1007.99
2022-10-23T01:37:44.412Z,1008.05
2022-10-23T01:38:44.297Z,1008.02
2022-10-23T01:39:45.138Z,1008.00
2022-10-23T01:40:45.847Z,1007.96
2022-10-23T01:41:46.035Z,1007.93
2022-10-23T01:42:44.543Z,1007.90
2022-10-23T01:43:45.183Z,1007.91
2022-10-23T01:44:45.005Z,1007.93
2022-10-23T01:45:45.164Z,1007.93
2022-10-23T01:46:45.000Z,1007.89
2022-10-23T01:47:45.454Z,1007.96
2022-10-23T01:48:45.125Z,1007.88
2022-10-23T01:49:45.821Z,1007.84
2022-10-23T01:50:45.953Z,1007.83
2022-10-23T01:51:45.755Z,1007.83
2022-10-23T01:52:46.000Z,1007.82
2022-10-23T01:53:45.059Z,1007.80
2022-10-23T01:54:45.655Z,1007.76
2022-10-23T01:55:44.005Z,1007.82
2022-10-23T01:56:43.993Z,1007.84
2022-10-23T01:57:44.486Z,1007.80
2022-10-23T01:58:44.001Z,1007.75
2022-10-23T01:59:43.954Z,1007.69
2022-10-23T02:00:43.943Z,1007.70
2022-10-23T02:01:44.061Z,1007.66
2022-10-23T02:02:45.072Z,1007.60
2022-10-23T02:03:43.904Z,1007.64
2022-10-23T02:04:43.905Z,1007.62
2022-10-23T02:05:43.885Z,1007.62
2022-10-23T02:06:43.883Z,1007.55
2022-10-23T02:07:44.332Z,1007.55
2022-10-23T02:08:44.020Z,1007.51
2022-10-23T02:09:43.842Z,1007.47
2022-10-23T02:10:43.831Z,1007.48
2022-10-23T02:11:43.822Z,1007.45
2022-10-23T02:12:43.825Z,1007.43
2022-10-23T02:13:43.808Z,1007.41
2022-10-23T02:14:43.853Z,1007.38
2022-10-23T02:15:43.778Z,1007.36
2022-10-23T02:16:43.782Z,1007.38
2022-10-23T02:17:43.970Z,1007.35
2022-10-23T02:18:43.760Z,1007.34
2022-10-23T02:19:43.772Z,1007.34
2022-10-23T02:21:43.726Z,1007.33
2022-10-23T02:22:44.006Z,1007.31
2022-10-23T02:23:43.702Z,1007.25
2022-10-23T02:24:43.732Z,1007.27
2022-10-23T02:25:43.682Z,1007.32
2022-10-23T02:26:43.685Z,1007.30
2022-10-23T02:27:43.682Z,1007.32
2022-10-23T02:28:43.641Z,1007.36
2022-10-23T02:29:47.262Z,1007.33
2022-10-23T02:30:43.622Z,1007.34
2022-10-23T02:31:43.621Z,1007.30
2022-10-23T02:32:44.022Z,1007.30
2022-10-23T02:33:43.588Z,1007.34
2022-10-23T02:34:43.611Z,1007.30
2022-10-23T02:35:43.562Z,1007.28
2022-10-23T02:36:43.581Z,1007.24
2022-10-23T02:37:43.901Z,1007.23
2022-10-23T02:38:43.581Z,1007.18
2022-10-23T02:39:43.521Z,1007.13
2022-10-23T02:40:43.600Z,1007.16
2022-10-23T02:41:43.503Z,1007.16
2022-10-23T02:42:43.521Z,1007.20
2022-10-23T02:43:43.633Z,1007.21
2022-10-23T02:44:43.502Z,1007.24
2022-10-23T02:45:43.489Z,1007.25
2022-10-23T02:46:43.481Z,1007.21
2022-10-23T02:47:43.819Z,1007.23
2022-10-23T02:48:43.430Z,1007.25
2022-10-23T02:49:43.410Z,1007.25
2022-10-23T02:50:43.410Z,1007.30
2022-10-23T02:51:43.401Z,1007.28
2022-10-23T02:52:43.422Z,1007.28
2022-10-23T02:53:43.372Z,1007.31
2022-10-23T02:54:43.390Z,1007.32
2022-10-23T02:55:43.387Z,1007.28
2022-10-23T02:56:43.340Z,1007.26
2022-10-23T02:57:43.636Z,1007.29
2022-10-23T02:58:43.327Z,1007.22
2022-10-23T02:59:43.301Z,1007.24
2022-10-23T03:00:43.300Z,1007.23
2022-10-23T03:01:43.414Z,1007.26
2022-10-23T03:02:43.279Z,1007.20
2022-10-23T03:03:43.261Z,1007.22
2022-10-23T03:04:43.258Z,1007.19
2022-10-23T03:05:43.241Z,1007.17
2022-10-23T03:06:43.457Z,1007.16
2022-10-23T03:07:43.591Z,1007.16
2022-10-23T03:08:43.219Z,1007.17
2022-10-23T03:09:43.220Z,1007.16
2022-10-23T03:10:43.262Z,1007.16
2022-10-23T03:11:43.190Z,1007.22
2022-10-23T03:12:43.414Z,1007.19
2022-10-23T03:13:43.188Z,1007.15
2022-10-23T03:14:43.170Z,1007.15
2022-10-23T03:15:43.140Z,1007.13
2022-10-23T03:16:43.131Z,1007.14
2022-10-23T03:17:43.130Z,1007.05
2022-10-23T03:18:43.141Z,1007.03
2022-10-23T03:19:43.091Z,1006.98
2022-10-23T03:20:43.089Z,1006.99
2022-10-23T03:21:43.080Z,1007.00
2022-10-23T03:22:43.291Z,1006.99
2022-10-23T03:23:43.049Z,1006.93
2022-10-23T03:24:43.070Z,1006.91
2022-10-23T03:25:43.059Z,1006.83
2022-10-23T03:26:43.058Z,1006.86
2022-10-23T03:27:43.010Z,1006.81
2022-10-23T03:28:43.034Z,1006.76
2022-10-23T03:29:43.031Z,1006.74
2022-10-23T03:30:42.981Z,1006.78
2022-10-23T03:31:42.969Z,1006.74
2022-10-23T03:32:43.297Z,1006.77
2022-10-23T03:33:42.949Z,1006.71
2022-10-23T03:34:42.942Z,1006.73
2022-10-23T03:35:42.989Z,1006.72
2022-10-23T03:36:42.952Z,1006.67
2022-10-23T03:37:43.199Z,1006.66
2022-10-23T03:38:42.899Z,1006.63
2022-10-23T03:39:42.889Z,1006.61
2022-10-23T03:40:42.916Z,1006.62
2022-10-23T03:41:42.883Z,1006.64
2022-10-23T03:42:42.850Z,1006.64
2022-10-23T03:43:42.865Z,1006.64
2022-10-23T03:44:42.829Z,1006.62
2022-10-23T03:45:42.826Z,1006.64
2022-10-23T03:46:42.800Z,1006.65
2022-10-23T03:47:43.108Z,1006.64
2022-10-23T03:48:42.799Z,1006.70
2022-10-23T03:49:42.769Z,1006.72
2022-10-23T03:50:42.768Z,1006.65
2022-10-23T03:51:42.761Z,1006.68
2022-10-23T03:52:43.131Z,1006.69
2022-10-23T03:53:42.729Z,1006.69
2022-10-23T03:54:42.719Z,1006.67
2022-10-23T03:55:42.739Z,1006.64
2022-10-23T03:56:42.709Z,1006.57
2022-10-23T03:57:42.719Z,1006.55
2022-10-23T03:58:42.678Z,1006.59
2022-10-23T03:59:42.669Z,1006.55
2022-10-23T04:01:42.939Z,1006.58
2022-10-23T04:02:43.012Z,1006.54
2022-10-23T04:03:42.628Z,1006.55
2022-10-23T04:04:42.617Z,1006.56
2022-10-23T04:05:42.626Z,1006.52
2022-10-23T04:06:42.628Z,1006.50
2022-10-23T04:07:42.579Z,1006.47
2022-10-23T04:08:42.568Z,1006.49
2022-10-23T04:09:42.575Z,1006.44
2022-10-23T04:10:42.587Z,1006.49
2022-10-23T04:11:42.552Z,1006.47
2022-10-23T04:12:42.845Z,1006.45
2022-10-23T04:13:42.526Z,1006.41
2022-10-23T04:14:44.838Z,1006.36
2022-10-23T04:15:42.569Z,1006.39
2022-10-23T04:16:42.509Z,1006.37
2022-10-23T04:17:42.479Z,1006.35
2022-10-23T04:18:42.459Z,1006.35
2022-10-23T04:19:42.514Z,1006.40
2022-10-23T04:20:42.457Z,1006.41
2022-10-23T04:21:42.458Z,1006.43
2022-10-23T04:22:49.945Z,1006.46
2022-10-23T04:23:42.420Z,1006.46
2022-10-23T04:24:42.392Z,1006.42
2022-10-23T04:25:42.448Z,1006.40
2022-10-23T04:26:42.412Z,1006.41
2022-10-23T04:27:42.855Z,1006.37
2022-10-23T04:28:42.353Z,1006.39
2022-10-23T04:29:42.343Z,1006.40
2022-10-23T04:30:42.335Z,1006.43
2022-10-23T04:31:42.335Z,1006.45
2022-10-23T04:32:42.312Z,1006.44
2022-10-23T04:33:42.335Z,1006.43
2022-10-23T04:34:42.295Z,1006.45
2022-10-23T04:35:42.288Z,1006.48
2022-10-23T04:36:42.261Z,1006.43
2022-10-23T04:37:42.515Z,1006.42
2022-10-23T04:38:42.250Z,1006.44
2022-10-23T04:39:42.281Z,1006.44
2022-10-23T04:40:42.222Z,1006.42
2022-10-23T04:41:42.249Z,1006.44
2022-10-23T04:42:42.503Z,1006.41
2022-10-23T04:43:42.220Z,1006.39
2022-10-23T04:44:42.181Z,1006.40
2022-10-23T04:45:42.202Z,1006.39
2022-10-23T04:46:42.193Z,1006.38
2022-10-23T04:47:42.154Z,1006.37
2022-10-23T04:48:42.144Z,1006.34
2022-10-23T04:49:42.129Z,1006.34
2022-10-23T04:50:42.151Z,1006.33
2022-10-23T04:51:42.112Z,1006.29
2022-10-23T04:52:42.457Z,1006.30
2022-10-23T04:53:42.092Z,1006.29
2022-10-23T04:54:42.102Z,1006.26
2022-10-23T04:55:43.352Z,1006.26
2022-10-23T04:56:42.052Z,1006.22
2022-10-23T04:57:42.053Z,1006.22
2022-10-23T04:58:42.060Z,1006.20
2022-10-23T04:59:42.022Z,1006.18
2022-10-23T05:00:42.025Z,1006.12
2022-10-23T05:01:42.036Z,1006.13
2022-10-23T05:02:42.254Z,1006.12
2022-10-23T05:03:41.981Z,1006.09
2022-10-23T05:04:41.991Z,1006.07
2022-10-23T05:05:46.023Z,1006.14
2022-10-23T05:06:41.941Z,1006.11
2022-10-23T05:07:42.270Z,1006.12
2022-10-23T05:08:41.932Z,1006.12
2022-10-23T05:09:41.919Z,1006.11
2022-10-23T05:10:41.902Z,1006.13
2022-10-23T05:11:41.922Z,1006.16
2022-10-23T05:12:41.882Z,1006.16
2022-10-23T05:13:41.874Z,1006.19
2022-10-23T05:14:41.861Z,1006.23
2022-10-23T05:16:41.934Z,1006.14
2022-10-23T05:17:42.107Z,1006.11
2022-10-23T05:18:41.822Z,1006.09
2022-10-23T05:19:41.811Z,1006.08
2022-10-23T05:20:41.801Z,1006.09
2022-10-23T05:21:41.791Z,1006.09
2022-10-23T05:22:41.919Z,1006.10
2022-10-23T05:23:41.761Z,1006.11
2022-10-23T05:24:41.761Z,1006.11
2022-10-23T05:25:41.749Z,1006.08
2022-10-23T05:26:41.730Z,1006.03
2022-10-23T05:27:42.208Z,1006.07
2022-10-23T05:28:41.711Z,1006.00
2022-10-23T05:29:41.702Z,1005.98
2022-10-23T05:30:41.930Z,1005.95
2022-10-23T05:31:41.680Z,1005.95
2022-10-23T05:32:41.856Z,1005.90
2022-10-23T05:33:41.661Z,1005.92
2022-10-23T05:34:41.791Z,1005.87
2022-10-23T05:35:41.641Z,1005.86
2022-10-23T05:36:41.638Z,1005.82
2022-10-23T05:37:41.621Z,1005.84
2022-10-23T05:38:41.610Z,1005.83
2022-10-23T05:39:41.600Z,1005.85
2022-10-23T05:40:41.932Z,1005.88
2022-10-23T05:41:41.590Z,1005.92
2022-10-23T05:42:41.831Z,1005.97
2022-10-23T05:43:41.561Z,1005.92
2022-10-23T05:44:41.550Z,1005.98
2022-10-23T05:45:41.889Z,1005.96
2022-10-23T05:46:41.520Z,1005.95
2022-10-23T05:47:41.539Z,1005.95
2022-10-23T05:48:41.501Z,1005.94
2022-10-23T05:49:41.528Z,1005.95
2022-10-23T05:50:41.481Z,1005.89
2022-10-23T05:51:41.470Z,1005.87
2022-10-23T05:52:41.813Z,1005.80
2022-10-23T05:53:42.550Z,1005.81
2022-10-23T05:54:41.470Z,1005.76
2022-10-23T05:55:41.429Z,1005.73
2022-10-23T05:56:41.525Z,1005.75
2022-10-23T05:57:41.893Z,1005.72
2022-10-23T05:58:41.391Z,1005.75
2022-10-23T05:59:41.394Z,1005.76
2022-10-23T06:00:41.378Z,1005.75
2022-10-23T06:01:41.540Z,1005.75
2022-10-23T06:02:41.451Z,1005.74
2022-10-23T06:03:41.370Z,1005.68
2022-10-23T06:04:41.350Z,1005.67
2022-10-23T06:05:41.322Z,1005.68
2022-10-23T06:06:41.309Z,1005.66
2022-10-23T06:07:41.469Z,1005.62
2022-10-23T06:08:41.288Z,1005.63
2022-10-23T06:09:41.309Z,1005.54
2022-10-23T06:10:41.269Z,1005.56
2022-10-23T06:11:41.319Z,1005.54
2022-10-23T06:12:41.249Z,1005.50
2022-10-23T06:13:41.236Z,1005.53
2022-10-23T06:14:41.229Z,1005.45
2022-10-23T06:15:41.219Z,1005.51
2022-10-23T06:16:41.246Z,1005.41
2022-10-23T06:17:41.585Z,1005.41
2022-10-23T06:18:41.184Z,1005.41
2022-10-23T06:19:41.168Z,1005.43
2022-10-23T06:20:41.169Z,1005.44
2022-10-23T06:21:41.187Z,1005.42
2022-10-23T06:22:41.432Z,1005.46
2022-10-23T06:23:41.129Z,1005.49
2022-10-23T06:24:41.119Z,1005.44
2022-10-23T06:25:41.108Z,1005.43
2022-10-23T06:26:41.089Z,1005.46
2022-10-23T06:27:41.119Z,1005.42
2022-10-23T06:28:41.079Z,1005.41
2022-10-23T06:29:41.069Z,1005.36
2022-10-23T06:30:41.069Z,1005.37
2022-10-23T06:31:41.259Z,1005.35
2022-10-23T06:32:41.507Z,1005.34
2022-10-23T06:33:41.028Z,1005.35
2022-10-23T06:34:41.029Z,1005.33
2022-10-23T06:35:41.010Z,1005.36
2022-10-23T06:36:41.010Z,1005.31
2022-10-23T06:37:41.200Z,1005.32
2022-10-23T06:38:41.006Z,1005.34
2022-10-23T06:39:40.969Z,1005.34
2022-10-23T06:40:40.970Z,1005.35
2022-10-23T06:41:41.229Z,1005.37
2022-10-23T06:42:41.185Z,1005.38
2022-10-23T06:43:40.919Z,1005.39
2022-10-23T06:44:40.908Z,1005.38
2022-10-23T06:45:41.248Z,1005.40
2022-10-23T06:46:40.901Z,1005.41
2022-10-23T06:47:41.069Z,1005.41
2022-10-23T06:48:40.939Z,1005.44
2022-10-23T06:49:40.858Z,1005.42
2022-10-23T06:50:40.870Z,1005.47
2022-10-23T06:51:40.838Z,1005.47
2022-10-23T06:52:46.860Z,1005.42
2022-10-23T06:53:41.807Z,1005.44
2022-10-23T06:54:40.799Z,1005.49
2022-10-23T06:55:40.859Z,1005.44
2022-10-23T06:56:40.778Z,1005.45
2022-10-23T06:57:41.117Z,1005.47
2022-10-23T06:58:40.767Z,1005.47
2022-10-23T06:59:40.748Z,1005.45
2022-10-23T07:00:40.810Z,1005.49
2022-10-23T07:01:40.971Z,1005.50
2022-10-23T07:02:40.959Z,1005.48
2022-10-23T07:03:40.709Z,1005.44
2022-10-23T07:04:40.695Z,1005.48
2022-10-23T07:05:40.686Z,1005.48
2022-10-23T07:06:40.688Z,1005.47
2022-10-23T07:07:40.708Z,1005.42
2022-10-23T07:08:40.649Z,1005.40
2022-10-23T07:09:40.638Z,1005.42
2022-10-23T07:10:40.709Z,1005.41
2022-10-23T07:11:40.621Z,1005.42
2022-10-23T07:12:40.996Z,1005.39
2022-10-23T07:13:40.612Z,1005.38
2022-10-23T07:14:40.607Z,1005.40
2022-10-23T07:15:40.581Z,1005.36
2022-10-23T07:16:40.591Z,1005.34
2022-10-23T07:17:40.568Z,1005.34
2022-10-23T07:18:40.539Z,1005.36
2022-10-23T07:19:40.535Z,1005.35
2022-10-23T07:20:40.518Z,1005.30
2022-10-23T07:21:40.518Z,1005.31
2022-10-23T07:22:40.753Z,1005.31
2022-10-23T07:23:40.526Z,1005.32
2022-10-23T07:24:40.478Z,1005.35
2022-10-23T07:25:40.468Z,1005.28
2022-10-23T07:26:40.700Z,1005.28
2022-10-23T07:27:40.799Z,1005.24
2022-10-23T07:28:40.435Z,1005.28
2022-10-23T07:29:40.468Z,1005.26
2022-10-23T07:30:40.408Z,1005.31
2022-10-23T07:31:40.457Z,1005.32
2022-10-23T07:32:40.407Z,1005.32
2022-10-23T07:33:40.399Z,1005.32
2022-10-23T07:34:40.384Z,1005.34
2022-10-23T07:35:40.397Z,1005.34
2022-10-23T07:36:40.348Z,1005.36
2022-10-23T07:37:40.548Z,1005.38
2022-10-23T07:38:40.346Z,1005.36
2022-10-23T07:39:40.327Z,1005.32
2022-10-23T07:40:40.348Z,1005.30
2022-10-23T07:41:40.336Z,1005.27
2022-10-23T07:42:40.280Z,1005.24
2022-10-23T07:43:40.292Z,1005.19
2022-10-23T07:44:40.269Z,1005.19
2022-10-23T07:45:40.256Z,1005.15
2022-10-23T07:46:40.287Z,1005.12
2022-10-23T07:47:40.599Z,1005.13
2022-10-23T07:48:40.221Z,1005.14
2022-10-23T07:49:40.260Z,1005.09
2022-10-23T07:50:40.228Z,1005.05
2022-10-23T07:51:40.396Z,1005.11
2022-10-23T07:52:40.176Z,1005.12
2022-10-23T07:53:40.171Z,1005.13
2022-10-23T07:54:40.154Z,1005.09
2022-10-23T07:55:40.187Z,1005.10
2022-10-23T07:56:40.185Z,1005.04
2022-10-23T07:57:40.150Z,1005.06
2022-10-23T07:58:40.147Z,1005.05
2022-10-23T07:59:40.177Z,1005.04
2022-10-23T08:00:40.087Z,1005.00
2022-10-23T08:01:40.181Z,1005.01
2022-10-23T08:02:40.485Z,1005.00
2022-10-23T08:03:40.053Z,1005.03
2022-10-23T08:04:40.046Z,1005.01
2022-10-23T08:05:40.026Z,1004.99
2022-10-23T08:06:40.031Z,1005.05
2022-10-23T08:07:40.066Z,1005.04
2022-10-23T08:08:40.073Z,1005.01
2022-10-23T08:09:39.987Z,1005.02
2022-10-23T08:10:39.985Z,1005.03
2022-10-23T08:11:39.966Z,1004.97
2022-10-23T08:12:40.188Z,1004.98
2022-10-23T08:13:39.966Z,1005.01
2022-10-23T08:14:39.972Z,1004.97
2022-10-23T08:15:39.927Z,1004.97
2022-10-23T08:16:40.010Z,1004.96
2022-10-23T08:17:40.086Z,1004.89
2022-10-23T08:18:39.903Z,1004.89
2022-10-23T08:19:39.877Z,1004.95
2022-10-23T08:20:39.878Z,1004.95
2022-10-23T08:21:39.866Z,1004.98
2022-10-23T08:22:39.886Z,1004.95
2022-10-23T08:23:39.838Z,1004.92
2022-10-23T08:24:39.856Z,1004.92
2022-10-23T08:25:39.820Z,1004.95
2022-10-23T08:26:39.826Z,1004.87
2022-10-23T08:27:39.861Z,1004.84
2022-10-23T08:28:41.576Z,1004.82
2022-10-23T08:29:39.777Z,1004.85
2022-10-23T08:30:39.766Z,1004.83
2022-10-23T08:31:39.755Z,1004.83
2022-10-23T08:32:39.767Z,1004.74
2022-10-23T08:33:39.815Z,1004.77
2022-10-23T08:34:39.747Z,1004.80
2022-10-23T08:35:39.716Z,1004.77
2022-10-23T08:36:39.719Z,1004.78
2022-10-23T08:37:39.903Z,1004.77
2022-10-23T08:38:39.679Z,1004.77
2022-10-23T08:39:39.687Z,1004.77
2022-10-23T08:40:39.712Z,1004.81
2022-10-23T08:41:39.687Z,1004.75
2022-10-23T08:42:39.721Z,1004.83
2022-10-23T08:43:39.646Z,1004.80
2022-10-23T08:44:39.629Z,1004.75
2022-10-23T08:45:39.598Z,1004.70
2022-10-23T08:46:39.587Z,1004.73
2022-10-23T08:47:39.635Z,1004.75
2022-10-23T08:48:39.575Z,1004.74
2022-10-23T08:49:39.648Z,1004.74
2022-10-23T08:50:39.557Z,1004.75
2022-10-23T08:51:39.533Z,1004.72
2022-10-23T08:52:39.526Z,1004.71
2022-10-23T08:53:39.516Z,1004.68
2022-10-23T08:54:39.567Z,1004.62
2022-10-23T08:55:39.516Z,1004.61
2022-10-23T08:56:39.548Z,1004.60
2022-10-23T08:57:42.753Z,1004.58
2022-10-23T08:58:39.493Z,1004.57
2022-10-23T08:59:39.458Z,1004.58
2022-10-23T09:00:39.524Z,1004.65
2022-10-23T09:01:39.621Z,1004.63
2022-10-23T09:02:39.429Z,1004.60
2022-10-23T09:03:39.530Z,1004.60
2022-10-23T09:04:39.398Z,1004.64
2022-10-23T09:05:39.387Z,1004.63
2022-10-23T09:06:39.449Z,1004.60
2022-10-23T09:07:39.385Z,1004.59
2022-10-23T09:08:39.368Z,1004.62
2022-10-23T09:09:39.348Z,1004.60
2022-10-23T09:10:39.338Z,1004.62
2022-10-23T09:11:39.412Z,1004.58
2022-10-23T09:12:39.318Z,1004.56
2022-10-23T09:13:39.297Z,1004.52
2022-10-23T09:14:39.296Z,1004.53
2022-10-23T09:15:39.286Z,1004.49
2022-10-23T09:16:39.315Z,1004.44
2022-10-23T09:17:39.282Z,1004.42
2022-10-23T09:18:39.256Z,1004.37
2022-10-23T09:19:39.248Z,1004.36
2022-10-23T09:20:39.367Z,1004.30
2022-10-23T09:21:39.219Z,1004.33
2022-10-23T09:22:39.367Z,1004.32
2022-10-23T09:23:39.196Z,1004.34
2022-10-23T09:24:39.197Z,1004.31
2022-10-23T09:25:39.198Z,1004.29
2022-10-23T09:26:39.197Z,1004.33
2022-10-23T09:27:39.156Z,1004.31
2022-10-23T09:28:39.190Z,1004.24
2022-10-23T09:29:39.126Z,1004.24
2022-10-23T09:30:39.343Z,1004.23
2022-10-23T09:31:39.137Z,1004.26
2022-10-23T09:32:39.106Z,1004.21
2022-10-23T09:33:39.154Z,1004.25
2022-10-23T09:34:39.116Z,1004.30
2022-10-23T09:35:39.076Z,1004.24
2022-10-23T09:36:39.067Z,1004.23
2022-10-23T09:37:39.066Z,1004.23
2022-10-23T09:38:39.043Z,1004.11
2022-10-23T09:39:39.037Z,1004.14
2022-10-23T09:40:39.047Z,1004.10
2022-10-23T09:41:39.017Z,1004.09
2022-10-23T09:42:38.996Z,1004.04
2022-10-23T09:43:38.986Z,1004.10
2022-10-23T09:44:38.977Z,1004.14
2022-10-23T09:45:38.966Z,1004.07
2022-10-23T09:46:39.040Z,1004.10
2022-10-23T09:47:38.944Z,1004.08
2022-10-23T09:48:38.956Z,1004.05
2022-10-23T09:49:38.926Z,1004.02
2022-10-23T09:50:38.943Z,1004.08
2022-10-23T09:51:38.897Z,1004.10
2022-10-23T09:52:38.955Z,1004.06
2022-10-23T09:53:39.000Z,1004.04
2022-10-23T09:54:38.889Z,1004.06
2022-10-23T09:55:38.856Z,1004.05
2022-10-23T09:56:38.917Z,1004.04
2022-10-23T09:57:38.896Z,1004.07
2022-10-23T09:58:38.845Z,1004.09
2022-10-23T09:59:38.805Z,1004.06
2022-10-23T10:00:38.861Z,1004.06
2022-10-23T10:01:38.924Z,1004.06
2022-10-23T10:02:38.798Z,1004.08
2022-10-23T10:03:38.798Z,1004.06
2022-10-23T10:04:38.772Z,1004.06
2022-10-23T10:05:38.756Z,1004.00
2022-10-23T10:06:38.815Z,1004.02
2022-10-23T10:07:38.776Z,1004.03
2022-10-23T10:08:39.788Z,1004.01
2022-10-23T10:09:38.718Z,1003.97
2022-10-23T10:10:38.758Z,1003.94
2022-10-23T10:11:38.687Z,1003.89
2022-10-23T10:12:38.682Z,1003.89
2022-10-23T10:13:38.659Z,1003.90
2022-10-23T10:14:38.696Z,1003.91
2022-10-23T10:15:38.718Z,1003.89
2022-10-23T10:17:38.638Z,1003.87
2022-10-23T10:18:38.639Z,1003.86
2022-10-23T10:19:42.177Z,1003.86
2022-10-23T10:20:38.596Z,1003.81
2022-10-23T10:21:38.598Z,1003.82
2022-10-23T10:22:38.608Z,1003.81
2022-10-23T10:23:38.598Z,1003.76
2022-10-23T10:24:38.599Z,1003.76
2022-10-23T10:25:39.385Z,1003.75
2022-10-23T10:26:38.568Z,1003.74
2022-10-23T10:27:38.528Z,1003.74
2022-10-23T10:28:38.517Z,1003.68
2022-10-23T10:29:38.487Z,1003.70
2022-10-23T10:30:38.548Z,1003.67
2022-10-23T10:31:38.487Z,1003.61
2022-10-23T10:32:38.458Z,1003.61
2022-10-23T10:33:38.467Z,1003.55
2022-10-23T10:34:38.447Z,1003.59
2022-10-23T10:35:45.486Z,1003.58
2022-10-23T10:36:38.509Z,1003.56
2022-10-23T10:37:38.397Z,1003.49
2022-10-23T10:38:38.407Z,1003.50
2022-10-23T10:39:38.380Z,1003.49
2022-10-23T10:40:38.370Z,1003.42
2022-10-23T10:41:38.499Z,1003.49
2022-10-23T10:42:38.348Z,1003.47
2022-10-23T10:43:38.329Z,1003.47
2022-10-23T10:44:38.339Z,1003.49
2022-10-23T10:45:38.390Z,1003.44
2022-10-23T10:46:38.308Z,1003.39
2022-10-23T10:47:38.289Z,1003.43
2022-10-23T10:48:38.422Z,1003.38
2022-10-23T10:49:38.283Z,1003.33
2022-10-23T10:50:38.269Z,1003.31
2022-10-23T10:51:38.288Z,1003.26
2022-10-23T10:52:38.273Z,1003.24
2022-10-23T10:53:38.240Z,1003.23
2022-10-23T10:54:38.299Z,1003.26
2022-10-23T10:55:38.201Z,1003.27
2022-10-23T10:56:38.209Z,1003.26
2022-10-23T10:57:38.220Z,1003.28
2022-10-23T10:58:38.187Z,1003.28
2022-10-23T10:59:38.165Z,1003.29
2022-10-23T11:00:38.159Z,1003.27
2022-10-23T11:01:38.572Z,1003.28
2022-10-23T11:02:38.180Z,1003.23
2022-10-23T11:03:40.130Z,1003.20
2022-10-23T11:04:38.111Z,1003.16
2022-10-23T11:05:38.116Z,1003.16
2022-10-23T11:06:38.119Z,1003.16
2022-10-23T11:07:38.069Z,1003.11
2022-10-23T11:08:49.848Z,1003.07
2022-10-23T11:09:39.079Z,1003.05
2022-10-23T11:10:38.220Z,1003.02
2022-10-23T11:11:38.028Z,1002.98
2022-10-23T11:12:38.018Z,1002.96
2022-10-23T11:13:38.009Z,1002.93
2022-10-23T11:14:38.001Z,1002.91
2022-10-23T11:15:38.032Z,1002.88
2022-10-23T11:16:38.251Z,1002.89
2022-10-23T11:17:37.985Z,1002.85
2022-10-23T11:18:37.987Z,1002.86
2022-10-23T11:19:37.937Z,1002.81
2022-10-23T11:20:37.949Z,1002.83
2022-10-23T11:21:37.917Z,1002.73
2022-10-23T11:22:37.942Z,1002.64
2022-10-23T11:23:37.902Z,1002.60
2022-10-23T11:24:37.898Z,1002.61
2022-10-23T11:25:37.879Z,1002.63
2022-10-23T11:26:37.878Z,1002.64
2022-10-23T11:27:37.859Z,1002.59
2022-10-23T11:28:39.560Z,1002.58
2022-10-23T11:29:37.839Z,1002.57
2022-10-23T11:30:37.830Z,1002.55
2022-10-23T11:31:37.858Z,1002.55
2022-10-23T11:32:37.844Z,1002.48
2022-10-23T11:33:39.283Z,1002.46
2022-10-23T11:34:37.819Z,1002.43
2022-10-23T11:35:37.770Z,1002.42
2022-10-23T11:36:37.769Z,1002.36
2022-10-23T11:37:37.749Z,1002.38
2022-10-23T11:38:37.750Z,1002.32
2022-10-23T11:39:37.731Z,1002.34
2022-10-23T11:40:37.823Z,1002.31
2022-10-23T11:41:37.704Z,1002.32
2022-10-23T11:42:37.700Z,1002.24
2022-10-23T11:43:37.693Z,1002.16
2022-10-23T11:44:37.681Z,1002.16
2022-10-23T11:45:37.703Z,1002.11
2022-10-23T11:46:37.689Z,1002.04
2022-10-23T11:47:40.051Z,1002.05
2022-10-23T11:48:37.640Z,1002.06
2022-10-23T11:49:37.630Z,1002.05
2022-10-23T11:50:37.619Z,1002.08
2022-10-23T11:51:37.652Z,1002.04
2022-10-23T11:52:45.559Z,1002.05
2022-10-23T11:53:38.589Z,1002.13
2022-10-23T11:54:37.579Z,1002.10
2022-10-23T11:55:37.559Z,1002.10
2022-10-23T11:56:37.560Z,1002.08
2022-10-23T11:57:37.610Z,1002.02
2022-10-23T11:58:37.561Z,1002.06
2022-10-23T11:59:37.561Z,1002.07
2022-10-23T12:00:37.522Z,1002.02
2022-10-23T12:01:37.580Z,1002.02
2022-10-23T12:02:37.604Z,1001.94
2022-10-23T12:03:37.480Z,1001.99
2022-10-23T12:04:37.541Z,1001.95
2022-10-23T12:05:37.450Z,1001.96
2022-10-23T12:06:37.471Z,1001.99
2022-10-23T12:07:37.439Z,1002.02
2022-10-23T12:08:37.421Z,1002.05
2022-10-23T12:09:37.412Z,1002.00